Time;durP1;ratioP1;P1;durP2;ratioP2;P2;SDS_P1;SDS_P2;PMS_P1;PMS_P2;Temp;Humidity;BMP_temperature;BMP_pressure;BME280_temperature;BME280_humidity;BME280_pressure;Samples;Min_cycle;Max_cycle;Signal;HPM_P1;HPM_P2
2022/05/27 00:01:12;;;;;;;1.00;0.50;;;13.80;99.90;;;;;;5095178;28;20044;-72
2022/05/27 00:03:38;;;;;;;;;;;13.80;99.90;;;;;;5095596;28;20044;-72
2022/05/27 00:06:04;;;;;;;0.40;0.40;;;13.80;99.90;;;;;;5094481;28;20271;-73
2022/05/27 00:08:30;;;;;;;0.60;0.60;;;13.70;99.90;;;;;;5095150;28;20044;-75
2022/05/27 00:10:57;;;;;;;0.40;0.40;;;13.70;99.90;;;;;;5095234;28;20063;-74
2022/05/27 00:13:23;;;;;;;0.40;0.40;;;13.70;99.90;;;;;;5095049;28;20058;-74
2022/05/27 00:15:49;;;;;;;0.40;0.40;;;13.70;99.90;;;;;;5094873;28;20044;-74
2022/05/27 00:18:15;;;;;;;0.40;0.40;;;13.70;99.90;;;;;;5093958;28;20085;-73
2022/05/27 00:20:40;;;;;;;0.60;0.60;;;13.70;99.90;;;;;;5093717;28;20048;-73
2022/05/27 00:23:06;;;;;;;0.30;0.30;;;13.60;99.90;;;;;;5094807;28;20048;-75
2022/05/27 00:25:32;;;;;;;0.38;0.38;;;13.60;99.90;;;;;;5094732;28;20044;-75
2022/05/27 00:27:58;;;;;;;0.75;0.60;;;13.60;99.90;;;;;;5094727;28;20388;-74
2022/05/27 00:30:24;;;;;;;0.40;0.40;;;13.60;99.90;;;;;;5094682;28;20055;-76
2022/05/27 00:32:50;;;;;;;0.30;0.30;;;13.60;99.90;;;;;;5094668;28;20043;-75
2022/05/27 00:35:16;;;;;;;0.40;0.40;;;13.60;99.90;;;;;;5094627;28;20449;-71
2022/05/27 00:37:41;;;;;;;0.40;0.40;;;13.60;99.90;;;;;;5094540;28;20079;-76
2022/05/27 00:40:08;;;;;;;0.40;0.40;;;13.60;99.90;;;;;;5094506;28;20080;-75
2022/05/27 00:42:38;;;;;;;0.32;0.32;;;13.60;99.90;;;;;;5094457;28;20048;-75
2022/05/27 00:45:04;;;;;;;0.50;0.50;;;13.60;99.90;;;;;;5094314;28;20051;-74
2022/05/27 00:47:38;;;;;;;0.30;0.30;;;13.60;99.90;;;;;;5094346;28;20040;-74
2022/05/27 00:50:06;;;;;;;0.40;0.40;;;13.60;99.90;;;;;;5094337;28;20051;-71
2022/05/27 00:52:34;;;;;;;0.40;0.40;;;13.50;99.90;;;;;;5094509;28;20051;-73
2022/05/27 00:55:09;;;;;;;0.40;0.40;;;13.50;99.90;;;;;;5094255;28;20071;-73
2022/05/27 00:57:44;;;;;;;0.30;0.30;;;13.50;99.90;;;;;;5094238;28;20127;-72
2022/05/27 01:00:16;;;;;;;0.30;0.30;;;13.50;99.90;;;;;;5094350;28;20048;-73
2022/05/27 01:02:43;;;;;;;0.40;0.40;;;13.50;99.90;;;;;;5094192;28;20052;-74
2022/05/27 01:05:12;;;;;;;0.40;0.40;;;13.50;99.90;;;;;;5094065;28;20055;-71
2022/05/27 01:07:38;;;;;;;0.40;0.40;;;13.50;99.90;;;;;;5094068;28;20126;-72
2022/05/27 01:10:06;;;;;;;0.40;0.40;;;13.50;99.90;;;;;;5093674;28;20092;-73
2022/05/27 01:13:00;;;;;;;0.40;0.40;;;13.50;99.90;;;;;;5094118;28;20090;-75
2022/05/27 01:15:52;;;;;;;0.35;0.35;;;13.50;99.90;;;;;;5093588;28;20051;-74
2022/05/27 01:22:06;;;;;;;0.40;0.40;;;13.40;99.90;;;;;;5093859;28;20052;-76
2022/05/27 01:24:31;;;;;;;0.40;0.40;;;13.40;99.90;;;;;;5093948;28;20056;-74
2022/05/27 01:27:16;;;;;;;0.33;0.33;;;13.40;99.90;;;;;;5093711;28;20063;-73
2022/05/27 01:30:03;;;;;;;0.30;0.30;;;13.40;99.90;;;;;;5094198;28;20044;-74
2022/05/27 01:32:56;;;;;;;0.32;0.32;;;13.40;99.90;;;;;;5093779;28;20498;-76
2022/05/27 01:35:51;;;;;;;0.40;0.40;;;13.40;99.90;;;;;;5093734;28;20044;-74
2022/05/27 01:38:25;;;;;;;0.40;0.40;;;13.40;99.90;;;;;;5094168;28;20090;-73
2022/05/27 01:41:03;;;;;;;0.35;0.35;;;13.40;99.90;;;;;;5093965;28;20381;-75
2022/05/27 01:43:49;;;;;;;0.30;0.30;;;13.40;99.90;;;;;;5093674;28;20044;-73
2022/05/27 01:46:25;;;;;;;0.40;0.40;;;13.40;99.90;;;;;;5093443;28;20533;-74
2022/05/27 01:49:08;;;;;;;0.40;0.40;;;13.40;99.90;;;;;;5093718;28;20048;-76
2022/05/27 01:51:45;;;;;;;0.40;0.40;;;13.30;99.90;;;;;;5093814;28;20048;-74
2022/05/27 01:54:30;;;;;;;0.40;0.40;;;13.30;99.90;;;;;;5093867;28;20091;-74
2022/05/27 01:57:02;;;;;;;0.38;0.38;;;13.30;99.90;;;;;;5093708;28;20032;-74
2022/05/27 02:00:08;;;;;;;0.30;0.30;;;13.30;99.90;;;;;;5093974;28;20052;-72
2022/05/27 02:02:38;;;;;;;0.40;0.40;;;13.20;99.90;;;;;;5093190;28;20047;-71
2022/05/27 02:05:07;;;;;;;0.40;0.40;;;13.20;99.90;;;;;;5093680;28;20051;-73
2022/05/27 02:07:44;;;;;;;0.40;0.40;;;13.10;99.90;;;;;;5092450;28;20056;-73
2022/05/27 02:10:25;;;;;;;0.40;0.40;;;13.10;99.90;;;;;;5093640;28;20471;-74
2022/05/27 02:12:55;;;;;;;0.40;0.40;;;13.00;99.90;;;;;;5093461;28;20134;-74
2022/05/27 02:15:28;;;;;;;0.40;0.40;;;13.00;99.90;;;;;;5093915;28;20039;-73
2022/05/27 02:18:16;;;;;;;0.40;0.40;;;13.00;99.90;;;;;;5093394;28;20452;-75
2022/05/27 02:20:44;;;;;;;;;;;12.90;99.90;;;;;;5093595;28;20105;-71
2022/05/27 02:23:21;;;;;;;0.50;0.50;;;12.90;99.90;;;;;;5096003;28;19919;-75
2022/05/27 02:25:48;;;;;;;0.40;0.40;;;12.80;99.90;;;;;;5097837;28;20407;-73
2022/05/27 02:28:38;;;;;;;0.40;0.40;;;12.80;99.90;;;;;;5096244;28;20301;-76
2022/05/27 02:31:12;;;;;;;0.40;0.40;;;12.80;99.90;;;;;;5097044;28;20048;-72
2022/05/27 02:36:38;;;;;;;0.40;0.40;;;12.70;99.90;;;;;;5097379;28;20043;-70
2022/05/27 02:39:06;;;;;;;0.50;0.50;;;12.70;99.90;;;;;;5097203;28;20040;-72
2022/05/27 02:41:57;;;;;;;0.40;0.40;;;12.70;99.90;;;;;;5096783;28;20047;-74
2022/05/27 02:44:56;;;;;;;0.40;0.40;;;12.70;99.90;;;;;;5096473;28;20605;-72
2022/05/27 02:47:31;;;;;;;0.40;0.40;;;12.70;99.90;;;;;;5096569;28;20032;-75
2022/05/27 02:50:19;;;;;;;0.50;0.50;;;12.60;99.90;;;;;;5096935;28;20182;-74
2022/05/27 02:52:55;;;;;;;;;;;12.60;99.90;;;;;;5097528;28;20169;-70
2022/05/27 02:55:25;;;;;;;0.40;0.40;;;12.60;99.90;;;;;;5096935;28;19947;-71
2022/05/27 02:57:53;;;;;;;0.30;0.30;;;12.60;99.90;;;;;;5096378;28;20551;-70
2022/05/27 03:00:24;;;;;;;0.40;0.40;;;12.60;99.90;;;;;;5096772;28;20048;-74
2022/05/27 03:02:52;;;;;;;0.40;0.40;;;12.50;99.90;;;;;;5096402;28;20036;-72
2022/05/27 03:05:21;;;;;;;0.65;0.60;;;12.50;99.90;;;;;;5095029;28;20063;-74
2022/05/27 03:08:11;;;;;;;0.47;0.47;;;12.50;99.90;;;;;;5096471;28;20487;-72
2022/05/27 03:10:56;;;;;;;0.60;0.60;;;12.50;99.90;;;;;;5095957;28;20057;-73
2022/05/27 03:13:55;;;;;;;0.40;0.40;;;12.50;99.90;;;;;;5096220;28;20110;-75
2022/05/27 03:16:31;;;;;;;27.02;1.95;;;12.40;99.90;;;;;;5096683;28;20084;-75
2022/05/27 03:19:26;;;;;;;0.40;0.40;;;12.50;99.90;;;;;;5096355;28;20052;-72
2022/05/27 03:22:13;;;;;;;0.40;0.40;;;12.40;99.90;;;;;;5096127;28;20127;-75
2022/05/27 03:25:06;;;;;;;0.40;0.40;;;12.50;99.90;;;;;;5096046;28;20404;-74
2022/05/27 03:27:47;;;;;;;0.50;0.50;;;12.50;99.90;;;;;;5096136;28;20040;-73
2022/05/27 03:30:25;;;;;;;0.40;0.40;;;12.50;99.90;;;;;;5095845;28;20060;-73
2022/05/27 03:32:59;;;;;;;0.40;0.40;;;12.50;99.90;;;;;;5096245;28;20068;-73
2022/05/27 03:35:32;;;;;;;0.40;0.40;;;12.50;99.90;;;;;;5095297;28;20556;-73
2022/05/27 03:38:04;;;;;;;0.40;0.40;;;12.50;99.90;;;;;;5096051;28;20487;-72
2022/05/27 03:40:42;;;;;;;0.40;0.40;;;12.50;99.90;;;;;;5095787;28;20404;-72
2022/05/27 03:43:09;;;;;;;0.40;0.40;;;12.50;99.90;;;;;;5095343;28;20484;-77
2022/05/27 03:45:49;;;;;;;0.40;0.40;;;12.40;99.90;;;;;;5095453;28;20067;-71
2022/05/27 03:48:15;;;;;;;0.40;0.40;;;12.50;99.90;;;;;;5095543;28;20079;-74
2022/05/27 03:50:42;;;;;;;0.40;0.40;;;12.50;99.90;;;;;;5095485;28;20055;-76
2022/05/27 03:53:07;;;;;;;0.40;0.40;;;12.50;99.90;;;;;;5095426;28;20070;-76
2022/05/27 03:55:33;;;;;;;0.40;0.40;;;12.50;99.90;;;;;;5095384;28;20040;-76
2022/05/27 03:57:58;;;;;;;0.40;0.40;;;12.50;99.90;;;;;;5095686;28;20563;-76
2022/05/27 04:00:24;;;;;;;0.40;0.40;;;12.50;99.90;;;;;;5095083;28;20135;-72
2022/05/27 04:02:50;;;;;;;0.43;0.43;;;12.60;99.90;;;;;;5095240;28;20083;-75
2022/05/27 04:05:17;;;;;;;0.40;0.40;;;12.60;99.90;;;;;;5095129;28;20101;-74
2022/05/27 04:07:43;;;;;;;;;;;12.60;99.90;;;;;;5095469;28;20123;-72
2022/05/27 04:10:09;;;;;;;0.40;0.40;;;12.60;99.90;;;;;;5094962;28;19965;-75
2022/05/27 04:12:36;;;;;;;0.40;0.40;;;12.60;99.90;;;;;;5095597;28;20040;-74
2022/05/27 04:15:04;;;;;;;0.40;0.40;;;12.60;99.90;;;;;;5095045;28;20121;-72
2022/05/27 04:17:30;;;;;;;0.40;0.40;;;12.60;99.90;;;;;;5094960;28;20048;-74
2022/05/27 04:20:17;;;;;;;0.40;0.40;;;12.60;99.90;;;;;;5094968;28;20044;-72
2022/05/27 04:22:43;;;;;;;0.40;0.40;;;12.60;99.90;;;;;;5094842;28;20040;-73
2022/05/27 04:25:10;;;;;;;0.40;0.40;;;12.70;99.90;;;;;;5095323;28;20318;-75
2022/05/27 04:27:37;;;;;;;0.40;0.40;;;12.70;99.90;;;;;;5095048;28;20122;-75
2022/05/27 04:30:04;;;;;;;0.40;0.40;;;12.70;99.90;;;;;;5094737;28;20090;-75
2022/05/27 04:32:30;;;;;;;0.40;0.40;;;12.70;99.90;;;;;;5094782;28;20089;-75
2022/05/27 04:34:56;;;;;;;0.40;0.40;;;12.70;99.90;;;;;;5094576;28;20036;-72
2022/05/27 04:37:23;;;;;;;0.40;0.40;;;12.70;99.90;;;;;;5094839;28;20105;-73
2022/05/27 04:39:49;;;;;;;0.40;0.40;;;12.70;99.90;;;;;;5094581;28;20048;-75
2022/05/27 04:42:15;;;;;;;0.40;0.40;;;12.80;99.90;;;;;;5094409;28;20384;-72
2022/05/27 04:44:41;;;;;;;0.40;0.40;;;12.80;99.90;;;;;;5094290;28;20093;-74
2022/05/27 04:47:11;;;;;;;0.40;0.40;;;12.80;99.90;;;;;;5093611;28;20040;-70
2022/05/27 04:49:56;;;;;;;0.40;0.40;;;12.80;99.90;;;;;;5094449;28;20051;-73
2022/05/27 04:52:29;;;;;;;0.88;0.82;;;12.80;99.90;;;;;;5094094;28;20515;-72
2022/05/27 04:54:56;;;;;;;0.40;0.40;;;12.80;99.90;;;;;;5094626;28;20387;-73
2022/05/27 04:57:26;;;;;;;0.40;0.40;;;12.80;99.90;;;;;;5094276;28;20044;-76
2022/05/27 04:59:52;;;;;;;0.35;0.35;;;12.90;99.90;;;;;;5094097;28;20036;-74
2022/05/27 05:02:20;;;;;;;0.40;0.40;;;12.90;99.90;;;;;;5094071;28;20089;-71
2022/05/27 05:04:47;;;;;;;0.40;0.40;;;12.90;99.90;;;;;;5094164;28;20040;-74
2022/05/27 05:07:12;;;;;;;0.40;0.40;;;12.90;99.90;;;;;;5094031;28;20040;-72
2022/05/27 05:09:41;;;;;;;0.40;0.40;;;12.90;99.90;;;;;;5093855;28;20040;-75
2022/05/27 05:12:08;;;;;;;0.40;0.40;;;12.90;99.90;;;;;;5093939;28;20455;-75
2022/05/27 05:14:33;;;;;;;0.47;0.47;;;12.90;99.90;;;;;;5093966;28;20480;-75
2022/05/27 05:16:59;;;;;;;0.40;0.40;;;12.90;99.90;;;;;;5093989;28;20044;-73
2022/05/27 05:19:24;;;;;;;0.38;0.38;;;12.90;99.90;;;;;;5094146;28;20093;-73
2022/05/27 05:21:50;;;;;;;0.40;0.40;;;12.90;99.90;;;;;;5094315;28;20043;-74
2022/05/27 05:24:16;;;;;;;0.40;0.40;;;12.80;99.90;;;;;;5093910;28;20044;-73
2022/05/27 05:26:41;;;;;;;0.30;0.30;;;12.80;99.90;;;;;;5093765;28;20040;-71
2022/05/27 05:29:07;;;;;;;0.40;0.40;;;12.80;99.90;;;;;;5093924;28;20040;-72
2022/05/27 05:31:33;;;;;;;0.40;0.40;;;12.90;99.90;;;;;;5093761;28;20044;-74
2022/05/27 05:33:59;;;;;;;1.05;1.00;;;13.00;99.90;;;;;;5093803;28;20400;-73
2022/05/27 05:36:26;;;;;;;0.40;0.40;;;13.10;99.90;;;;;;5092829;28;20391;-72
2022/05/27 05:38:52;;;;;;;0.40;0.40;;;13.30;99.90;;;;;;5093982;28;20403;-74
2022/05/27 05:41:29;;;;;;;0.40;0.40;;;13.50;99.90;;;;;;5093790;28;20036;-71
2022/05/27 05:43:55;;;;;;;0.35;0.35;;;13.60;99.90;;;;;;5093724;28;20078;-74
2022/05/27 05:46:22;;;;;;;0.50;0.50;;;13.70;99.90;;;;;;5093590;28;20467;-73
2022/05/27 05:48:48;;;;;;;0.40;0.40;;;13.70;99.90;;;;;;5093745;28;20059;-74
2022/05/27 05:51:13;;;;;;;0.90;0.63;;;13.80;99.90;;;;;;5093953;28;20040;-72
2022/05/27 05:53:39;;;;;;;0.30;0.30;;;13.80;99.90;;;;;;5093061;28;20519;-74
2022/05/27 05:56:05;;;;;;;0.40;0.40;;;14.00;99.90;;;;;;5093571;28;20047;-72
2022/05/27 05:58:30;;;;;;;0.40;0.40;;;14.00;99.90;;;;;;5096878;28;20040;-75
2022/05/27 06:00:56;;;;;;;0.40;0.40;;;14.00;99.90;;;;;;5097103;28;20173;-73
2022/05/27 06:03:21;;;;;;;0.40;0.40;;;14.20;99.90;;;;;;5097471;28;20097;-72
2022/05/27 06:05:47;;;;;;;1.10;0.73;;;14.50;99.90;;;;;;5097441;28;20044;-72
2022/05/27 06:08:15;;;;;;;0.40;0.40;;;14.70;99.90;;;;;;5097604;28;20036;-74
2022/05/27 06:10:41;;;;;;;0.40;0.40;;;15.00;99.90;;;;;;5097593;28;20181;-75
2022/05/27 06:13:07;;;;;;;0.40;0.40;;;15.30;99.90;;;;;;5097074;28;20044;-74
2022/05/27 06:15:33;;;;;;;0.40;0.40;;;15.50;99.90;;;;;;5097234;28;20050;-75
2022/05/27 06:17:59;;;;;;;0.30;0.30;;;15.50;99.90;;;;;;5097270;28;20127;-75
2022/05/27 06:20:26;;;;;;;0.40;0.40;;;15.60;99.90;;;;;;5097239;28;20044;-75
2022/05/27 06:22:52;;;;;;;0.30;0.30;;;15.80;99.90;;;;;;5097129;28;20112;-72
2022/05/27 06:25:17;;;;;;;0.45;0.45;;;15.80;99.90;;;;;;5097219;28;20477;-74
2022/05/27 06:27:43;;;;;;;0.40;0.40;;;15.70;99.90;;;;;;5096744;28;20093;-72
2022/05/27 06:35:41;;;;;;;0.50;0.50;;;15.60;99.90;;;;;;5096831;28;20044;-75
2022/05/27 06:38:07;;;;;;;0.30;0.30;;;15.80;99.90;;;;;;5096861;28;20094;-71
2022/05/27 06:40:32;;;;;;;0.32;0.32;;;15.70;99.90;;;;;;5096836;28;20055;-76
2022/05/27 06:42:58;;;;;;;0.40;0.40;;;15.70;99.90;;;;;;5097194;28;20036;-75
2022/05/27 06:45:24;;;;;;;2.17;0.97;;;15.70;99.90;;;;;;5096727;28;20185;-73
2022/05/27 06:47:50;;;;;;;0.30;0.30;;;15.70;99.90;;;;;;5096716;28;20048;-75
2022/05/27 06:50:15;;;;;;;0.30;0.30;;;15.70;99.90;;;;;;5096689;28;20075;-76
2022/05/27 06:52:42;;;;;;;0.40;0.40;;;15.70;99.90;;;;;;5096638;28;20058;-73
2022/05/27 06:55:10;;;;;;;0.30;0.30;;;15.70;99.90;;;;;;5096581;28;20067;-74
2022/05/27 06:57:36;;;;;;;0.30;0.30;;;15.50;99.90;;;;;;5096309;28;20048;-72
2022/05/27 07:00:04;;;;;;;2.13;0.60;;;15.40;99.90;;;;;;5096590;28;20048;-73
2022/05/27 07:02:29;;;;;;;11.20;1.02;;;15.30;99.90;;;;;;5096386;28;20044;-75
2022/05/27 07:04:55;;;;;;;0.30;0.30;;;15.30;99.90;;;;;;5096392;28;20066;-71
2022/05/27 07:07:24;;;;;;;0.30;0.30;;;15.40;99.90;;;;;;5096283;28;20040;-73
2022/05/27 07:09:50;;;;;;;0.73;0.70;;;15.40;99.90;;;;;;5095026;28;20055;-76
2022/05/27 07:12:15;;;;;;;0.40;0.40;;;15.60;99.90;;;;;;5096281;28;20048;-72
2022/05/27 07:14:41;;;;;;;0.30;0.30;;;15.60;99.90;;;;;;5096243;28;20044;-76
2022/05/27 07:17:07;;;;;;;0.30;0.30;;;15.60;99.90;;;;;;5096145;28;20040;-76
2022/05/27 07:19:32;;;;;;;0.50;0.50;;;15.70;99.90;;;;;;5096136;28;20083;-75
2022/05/27 07:21:58;;;;;;;0.30;0.30;;;15.70;99.90;;;;;;5096184;28;20062;-76
2022/05/27 07:24:25;;;;;;;2.38;0.82;;;15.70;99.90;;;;;;5095930;28;20396;-71
2022/05/27 07:26:51;;;;;;;0.82;0.82;;;15.80;99.90;;;;;;5096343;28;20040;-75
2022/05/27 07:29:17;;;;;;;0.40;0.40;;;15.80;99.90;;;;;;5096013;28;20101;-76
2022/05/27 07:31:43;;;;;;;0.30;0.30;;;15.90;99.90;;;;;;5095863;28;20404;-73
2022/05/27 07:34:10;;;;;;;1.40;1.20;;;15.90;99.90;;;;;;5095798;28;20150;-74
2022/05/27 07:36:36;;;;;;;0.40;0.40;;;15.70;99.90;;;;;;5095766;28;20434;-76
2022/05/27 07:39:02;;;;;;;0.40;0.40;;;15.70;99.90;;;;;;5095698;28;20044;-75
2022/05/27 07:41:28;;;;;;;0.40;0.40;;;15.70;99.90;;;;;;5095687;28;20040;-76
2022/05/27 07:43:54;;;;;;;0.40;0.40;;;15.80;99.90;;;;;;5095581;28;20050;-75
2022/05/27 07:46:22;;;;;;;0.40;0.40;;;16.00;99.90;;;;;;5095503;28;20153;-74
2022/05/27 07:48:47;;;;;;;0.60;0.60;;;15.90;99.90;;;;;;5095586;28;20093;-74
2022/05/27 07:51:13;;;;;;;0.30;0.30;;;15.70;99.90;;;;;;5095488;28;20044;-75
2022/05/27 07:53:38;;;;;;;0.30;0.30;;;15.60;99.90;;;;;;5095490;28;20087;-76
2022/05/27 07:56:06;;;;;;;0.43;0.43;;;15.50;99.90;;;;;;5095359;28;20044;-73
2022/05/27 07:58:32;;;;;;;0.30;0.30;;;15.60;99.90;;;;;;5095425;28;20087;-74
2022/05/27 08:00:57;;;;;;;0.87;0.87;;;15.70;99.90;;;;;;5095410;28;20052;-74
2022/05/27 08:03:23;;;;;;;0.30;0.30;;;15.80;99.90;;;;;;5095223;28;20040;-72
2022/05/27 08:05:49;;;;;;;0.30;0.30;;;15.80;99.90;;;;;;5095265;28;20044;-74
2022/05/27 08:08:14;;;;;;;0.30;0.30;;;16.00;99.90;;;;;;5095084;28;20047;-76
2022/05/27 08:10:41;;;;;;;0.35;0.35;;;16.20;99.90;;;;;;5095050;28;20496;-73
2022/05/27 08:13:07;;;;;;;0.30;0.30;;;16.20;99.90;;;;;;5095073;28;20040;-74
2022/05/27 08:15:32;;;;;;;0.30;0.30;;;16.30;99.90;;;;;;5095000;28;20096;-72
2022/05/27 08:17:58;;;;;;;2.23;2.10;;;16.20;99.90;;;;;;5094907;28;20036;-74
2022/05/27 08:20:27;;;;;;;0.30;0.30;;;16.10;99.90;;;;;;5094744;28;20040;-75
2022/05/27 08:22:53;;;;;;;0.30;0.30;;;16.00;99.90;;;;;;5094752;28;20469;-72
2022/05/27 08:25:21;;;;;;;0.30;0.30;;;15.80;99.90;;;;;;5094782;28;20131;-74
2022/05/27 08:27:48;;;;;;;0.30;0.30;;;15.80;99.90;;;;;;5094731;28;20097;-74
2022/05/27 08:30:19;;;;;;;0.50;0.50;;;15.80;99.90;;;;;;5094679;28;20127;-75
2022/05/27 08:32:47;;;;;;;0.30;0.30;;;15.90;99.90;;;;;;5094701;28;20484;-75
2022/05/27 08:38:03;;;;;;;0.40;0.40;;;16.40;99.90;;;;;;5094592;28;20052;-75
2022/05/27 08:40:50;;;;;;;0.30;0.30;;;16.70;99.90;;;;;;5094603;28;20471;-76
2022/05/27 08:43:37;;;;;;;0.40;0.40;;;16.80;99.90;;;;;;5094777;28;20082;-72
2022/05/27 08:46:36;;;;;;;0.40;0.40;;;16.90;99.60;;;;;;5094269;28;20039;-77
2022/05/27 08:49:07;;;;;;;0.30;0.30;;;16.70;99.10;;;;;;5094278;28;20119;-76
2022/05/27 08:51:45;;;;;;;0.35;0.35;;;16.80;99.90;;;;;;5094895;28;20059;-77
2022/05/27 08:54:20;;;;;;;0.30;0.30;;;16.70;99.40;;;;;;5094265;28;20059;-76
2022/05/27 08:59:40;;;;;;;0.30;0.30;;;16.90;98.60;;;;;;5094133;28;20044;-72
2022/05/27 09:02:38;;;;;;;2.65;0.85;;;17.10;99.90;;;;;;5094173;28;20047;-76
2022/05/27 09:05:32;;;;;;;0.30;0.30;;;17.20;97.90;;;;;;5059800;28;20526;-74
2022/05/27 09:08:05;;;;;;;0.43;0.43;;;17.00;95.80;;;;;;5094186;28;20090;-73
2022/05/27 09:10:43;;;;;;;0.30;0.30;;;16.90;95.50;;;;;;5094480;28;20060;-76
2022/05/27 09:13:52;;;;;;;0.30;0.30;;;17.00;99.00;;;;;;5094038;28;20087;-75
2022/05/27 09:16:23;;;;;;;0.40;0.40;;;17.00;98.80;;;;;;5064589;28;20123;-73
2022/05/27 09:19:17;;;;;;;0.30;0.30;;;17.20;97.40;;;;;;5094151;28;20050;-75
2022/05/27 09:21:59;;;;;;;0.30;0.30;;;17.10;95.60;;;;;;5093303;28;20459;-73
2022/05/27 09:24:54;;;;;;;0.30;0.30;;;17.10;96.90;;;;;;5093930;28;20048;-72
2022/05/27 09:28:05;;;;;;;0.30;0.30;;;17.10;96.60;;;;;;5094038;28;20051;-73
2022/05/27 09:30:34;;;;;;;0.40;0.40;;;17.20;96.20;;;;;;5074624;28;20060;-74
2022/05/27 09:33:07;;;;;;;0.30;0.30;;;17.20;96.90;;;;;;5093307;28;20152;-74
2022/05/27 09:36:02;;;;;;;0.30;0.30;;;17.30;96.20;;;;;;5093842;28;20082;-71
2022/05/27 09:38:31;;;;;;;1.15;1.05;;;17.30;96.50;;;;;;5093738;28;20052;-74
2022/05/27 09:41:23;;;;;;;11.73;2.00;;;17.20;96.60;;;;;;5093867;28;20048;-73
2022/05/27 09:44:17;;;;;;;0.30;0.30;;;17.20;97.40;;;;;;5093912;28;20052;-75
2022/05/27 09:46:43;;;;;;;0.30;0.30;;;17.20;96.60;;;;;;5094202;28;20395;-73
2022/05/27 09:49:09;;;;;;;0.52;0.50;;;17.20;95.90;;;;;;5093763;28;20051;-72
2022/05/27 09:51:34;;;;;;;0.40;0.40;;;17.40;97.50;;;;;;5093691;28;20044;-73
2022/05/27 09:54:33;;;;;;;0.27;0.27;;;17.70;97.80;;;;;;5093972;28;20040;-72
2022/05/27 09:57:03;;;;;;;;;;;17.40;96.30;;;;;;5094053;28;20036;-73
2022/05/27 09:59:41;;;;;;;0.30;0.30;;;17.20;94.60;;;;;;5093658;28;20022;-72
2022/05/27 10:02:17;;;;;;;0.85;0.68;;;17.00;95.80;;;;;;5094025;28;20471;-74
2022/05/27 10:04:56;;;;;;;0.30;0.30;;;17.20;96.30;;;;;;5093844;28;20083;-73
2022/05/27 10:07:31;;;;;;;0.30;0.30;;;17.50;98.30;;;;;;5094493;28;20047;-72
2022/05/27 10:10:14;;;;;;;0.30;0.30;;;17.50;97.70;;;;;;5094581;28;20044;-75
2022/05/27 10:12:40;;;;;;;0.30;0.30;;;17.30;96.00;;;;;;5094162;28;20116;-72
2022/05/27 10:15:06;;;;;;;3.73;0.50;;;17.50;97.00;;;;;;5094184;28;20048;-71
2022/05/27 10:17:37;;;;;;;0.30;0.30;;;17.60;97.60;;;;;;5094037;28;20040;-73
2022/05/27 10:20:29;;;;;;;0.30;0.30;;;17.50;95.50;;;;;;5093413;28;20126;-72
2022/05/27 10:23:07;;;;;;;0.32;0.32;;;17.40;97.30;;;;;;5093375;28;20050;-73
2022/05/27 10:25:41;;;;;;;0.85;0.43;;;17.20;95.80;;;;;;5093639;28;20071;-73
2022/05/27 10:28:09;;;;;;;0.30;0.30;;;17.20;96.40;;;;;;5093496;28;20484;-72
2022/05/27 10:30:38;;;;;;;0.30;0.30;;;17.30;95.10;;;;;;5093204;28;20048;-74
2022/05/27 10:33:16;;;;;;;0.30;0.30;;;17.30;96.50;;;;;;5093329;28;20044;-73
2022/05/27 10:35:41;;;;;;;0.30;0.30;;;17.20;97.50;;;;;;5093232;28;20077;-74
2022/05/27 10:38:25;;;;;;;0.30;0.30;;;17.30;97.70;;;;;;5093241;28;20040;-74
2022/05/27 10:40:54;;;;;;;0.30;0.30;;;17.10;97.00;;;;;;5093051;28;20503;-70
2022/05/27 10:43:55;;;;;;;0.30;0.30;;;17.30;99.00;;;;;;5093292;28;20086;-72
2022/05/27 10:46:30;;;;;;;0.30;0.30;;;17.30;98.70;;;;;;5097049;28;20070;-72
2022/05/27 10:49:14;;;;;;;0.30;0.30;;;17.60;98.20;;;;;;5096687;28;20127;-73
2022/05/27 10:51:56;;;;;;;0.30;0.30;;;17.60;96.80;;;;;;5096103;28;20130;-76
2022/05/27 10:54:25;;;;;;;0.35;0.35;;;17.30;96.00;;;;;;5096569;28;20101;-73
2022/05/27 11:03:17;;;;;;;0.30;0.30;;;17.90;95.30;;;;;;5096410;28;20051;-74
2022/05/27 11:06:05;;;;;;;0.30;0.30;;;17.80;94.60;;;;;;5096470;28;20047;-74
2022/05/27 11:08:33;;;;;;;0.30;0.30;;;17.60;95.60;;;;;;5095903;28;20388;-73
2022/05/27 11:11:18;;;;;;;0.30;0.30;;;17.50;95.90;;;;;;5096257;28;20063;-75
2022/05/27 11:17:34;;;;;;;0.30;0.30;;;17.70;96.20;;;;;;5033926;28;20049;-74
2022/05/27 11:20:18;;;;;;;0.30;0.30;;;17.50;94.70;;;;;;5096333;28;20044;-74
2022/05/27 11:23:08;;;;;;;1.73;1.05;;;17.50;95.20;;;;;;5096019;28;20079;-74
2022/05/27 11:25:57;;;;;;;1.02;0.93;;;17.50;94.90;;;;;;5096257;28;20048;-76
2022/05/27 11:28:50;;;;;;;0.30;0.30;;;17.40;94.90;;;;;;5095953;28;20051;-75
2022/05/27 11:31:40;;;;;;;0.30;0.30;;;17.40;96.50;;;;;;5096348;28;20052;-75
2022/05/27 11:34:25;;;;;;;0.30;0.30;;;17.30;96.60;;;;;;5096398;28;20040;-77
2022/05/27 11:37:18;;;;;;;0.50;0.50;;;17.00;96.00;;;;;;5096281;28;20594;-73
2022/05/27 11:40:04;;;;;;;0.30;0.30;;;16.80;96.70;;;;;;5096212;28;20055;-75
2022/05/27 11:43:07;;;;;;;1.30;0.57;;;16.70;97.00;;;;;;5096677;28;20367;-72
2022/05/27 11:45:34;;;;;;;0.30;0.30;;;16.70;96.80;;;;;;5095885;28;20047;-73
2022/05/27 11:48:29;;;;;;;0.30;0.30;;;16.90;97.70;;;;;;5095956;28;20073;-74
2022/05/27 11:51:09;;;;;;;0.40;0.40;;;17.30;94.70;;;;;;5095553;28;20051;-74
2022/05/27 11:54:15;;;;;;;0.40;0.40;;;17.50;94.30;;;;;;5096073;28;20047;-76
2022/05/27 11:57:08;;;;;;;0.30;0.30;;;17.90;95.90;;;;;;5095827;28;20040;-73
2022/05/27 11:59:46;;;;;;;12.65;1.95;;;18.00;94.90;;;;;;5095482;28;20044;-78
2022/05/27 12:02:33;;;;;;;0.47;0.47;;;17.90;95.50;;;;;;5095816;28;20036;-71
2022/05/27 12:05:08;;;;;;;0.30;0.30;;;18.00;96.00;;;;;;5095935;28;20048;-73
2022/05/27 12:07:44;;;;;;;0.30;0.30;;;18.10;97.00;;;;;;5095962;28;20132;-75
2022/05/27 12:10:19;;;;;;;0.40;0.40;;;18.20;95.60;;;;;;5096971;28;20055;-72
2022/05/27 12:13:02;;;;;;;0.30;0.30;;;18.20;94.80;;;;;;5099360;28;20052;-73
2022/05/27 12:15:39;;;;;;;0.30;0.30;;;18.10;94.10;;;;;;5100114;28;20075;-73
2022/05/27 12:18:16;;;;;;;0.30;0.30;;;17.90;93.50;;;;;;5097330;28;20048;-76
2022/05/27 12:20:42;;;;;;;0.30;0.30;;;17.70;94.60;;;;;;5095216;28;20522;-77
2022/05/27 12:23:11;;;;;;;0.30;0.30;;;17.50;94.90;;;;;;5095767;28;20127;-74
2022/05/27 12:25:45;;;;;;;0.40;0.40;;;17.40;95.50;;;;;;5097144;28;20120;-75
2022/05/27 12:28:15;;;;;;;4.40;0.55;;;17.30;95.20;;;;;;5095378;28;20051;-74
2022/05/27 12:30:43;;;;;;;0.30;0.30;;;17.40;97.10;;;;;;5094732;28;20513;-75
2022/05/27 12:33:14;;;;;;;0.40;0.40;;;17.40;95.80;;;;;;5094834;28;20059;-74
2022/05/27 12:35:39;;;;;;;0.30;0.30;;;17.10;94.60;;;;;;5094852;28;20101;-73
2022/05/27 12:38:22;;;;;;;0.30;0.30;;;16.90;96.30;;;;;;5094410;28;20044;-72
2022/05/27 12:41:06;;;;;;;0.20;0.20;;;17.30;98.60;;;;;;5094734;28;20399;-72
2022/05/27 12:43:53;;;;;;;0.30;0.30;;;17.50;96.20;;;;;;5094819;28;20055;-71
2022/05/27 12:46:29;;;;;;;0.30;0.30;;;17.90;95.60;;;;;;5094700;28;20040;-73
2022/05/27 12:49:35;;;;;;;0.30;0.30;;;17.90;95.80;;;;;;5094557;28;20040;-75
2022/05/27 12:52:03;;;;;;;0.65;0.60;;;17.70;95.20;;;;;;5094344;28;20461;-73
2022/05/27 12:54:45;;;;;;;0.30;0.30;;;17.70;97.00;;;;;;5094425;28;20451;-72
2022/05/27 13:01:15;;;;;;;0.30;0.30;;;17.90;95.40;;;;;;5094260;28;20051;-72
2022/05/27 13:03:38;;;;;;;0.40;0.40;;;18.00;95.40;;;;;;5086862;28;20051;-75
2022/05/27 13:06:11;;;;;;;0.30;0.30;;;17.70;95.10;;;;;;5093697;28;20488;-76
2022/05/27 13:09:00;;;;;;;0.30;0.30;;;17.50;96.30;;;;;;5093976;28;20044;-73
2022/05/27 13:11:34;;;;;;;0.30;0.30;;;17.60;96.40;;;;;;5093544;28;20139;-71
2022/05/27 13:14:03;;;;;;;0.30;0.30;;;17.60;96.00;;;;;;5094447;28;20056;-74
2022/05/27 13:16:45;;;;;;;0.30;0.30;;;17.80;96.10;;;;;;5094001;28;20082;-76
2022/05/27 13:19:33;;;;;;;1.70;0.95;;;17.70;95.00;;;;;;5093978;28;20051;-76
2022/05/27 13:22:03;;;;;;;0.63;0.60;;;17.30;94.80;;;;;;5093932;28;20484;-72
2022/05/27 13:24:34;;;;;;;0.20;0.20;;;17.00;95.20;;;;;;5094037;28;20131;-75
2022/05/27 13:27:21;;;;;;;0.45;0.45;;;16.90;95.20;;;;;;5093869;28;20036;-76
2022/05/27 13:29:53;;;;;;;0.30;0.30;;;16.80;96.80;;;;;;5093958;28;20487;-73
2022/05/27 13:32:24;;;;;;;0.50;0.50;;;17.10;97.10;;;;;;5093872;28;20131;-72
2022/05/27 13:35:07;;;;;;;0.38;0.38;;;17.30;96.50;;;;;;5093583;28;20545;-71
2022/05/27 13:37:39;;;;;;;0.30;0.30;;;17.50;94.20;;;;;;5093850;28;20046;-74
2022/05/27 13:40:25;;;;;;;0.43;0.43;;;17.60;95.40;;;;;;5094001;28;20044;-74
2022/05/27 13:43:01;;;;;;;0.30;0.30;;;17.70;96.00;;;;;;5093773;28;20044;-73
2022/05/27 13:45:42;;;;;;;0.30;0.30;;;17.70;96.50;;;;;;5092718;28;20052;-72
2022/05/27 13:48:14;;;;;;;0.30;0.30;;;17.30;95.90;;;;;;5093759;28;20507;-72
2022/05/27 13:50:44;;;;;;;0.30;0.30;;;17.20;97.30;;;;;;5093734;28;20044;-75
2022/05/27 13:53:28;;;;;;;0.90;0.77;;;17.00;96.50;;;;;;5093626;28;20553;-74